Time;durP1;ratioP1;P1;durP2;ratioP2;P2;SDS_P1;SDS_P2;PMS_P1;PMS_P2;Temp;Humidity;BMP_temperature;BMP_pressure;BME280_temperature;BME280_humidity;BME280_pressure;Samples;Min_cycle;Max_cycle;Signal;HPM_P1;HPM_P2
2024/01/31 00:01:44;;;;;;;488.35;278.40;;;;;;;5.39;100.00;99497.00;5024840;28;20041;-61
2024/01/31 00:04:09;;;;;;;488.85;278.40;;;;;;;5.40;100.00;99503.94;5025549;28;20025;-61
2024/01/31 00:06:34;;;;;;;503.52;284.92;;;;;;;5.60;100.00;99499.59;5024618;28;20033;-60
2024/01/31 00:09:00;;;;;;;607.25;282.00;;;;;;;5.24;100.00;99502.41;5023357;28;20506;-62
2024/01/31 00:11:28;;;;;;;469.70;275.67;;;;;;;5.63;100.00;99497.94;5023058;28;20056;-60
2024/01/31 00:13:55;;;;;;;605.40;284.48;;;;;;;5.67;100.00;99507.56;5023360;28;20688;-60
2024/01/31 00:16:20;;;;;;;466.15;264.42;;;;;;;5.50;100.00;99507.78;5026665;28;20038;-60
2024/01/31 00:18:45;;;;;;;485.30;266.90;;;;;;;5.47;100.00;99503.34;5026288;28;20104;-60
2024/01/31 00:21:10;;;;;;;488.50;265.67;;;;;;;5.41;100.00;99497.03;5025543;28;20039;-60
2024/01/31 00:23:36;;;;;;;485.50;258.88;;;;;;;5.39;100.00;99498.69;5028762;28;20113;-60
2024/01/31 00:26:01;;;;;;;550.63;264.08;;;;;;;5.51;100.00;99488.88;5022449;28;20057;-60
2024/01/31 00:28:27;;;;;;;469.25;254.48;;;;;;;5.47;100.00;99495.59;5026987;28;20023;-59
2024/01/31 00:30:52;;;;;;;563.53;261.10;;;;;;;5.83;100.00;99496.19;5024059;28;20107;-59
2024/01/31 00:33:18;;;;;;;468.52;254.52;;;;;;;5.50;100.00;99497.47;5026394;28;20041;-59
2024/01/31 00:35:43;;;;;;;473.45;251.85;;;;;;;5.71;100.00;99494.88;5024713;28;20127;-62
2024/01/31 00:38:09;;;;;;;455.15;247.48;;;;;;;5.75;100.00;99489.84;5026859;28;20618;-60
2024/01/31 00:40:34;;;;;;;462.73;237.80;;;;;;;5.68;100.00;99491.28;5024872;28;20084;-60
2024/01/31 00:43:00;;;;;;;551.97;254.45;;;;;;;5.71;100.00;99488.81;5021279;28;20161;-62
2024/01/31 00:45:25;;;;;;;440.13;236.93;;;;;;;5.88;100.00;99488.59;5023279;28;20048;-60
2024/01/31 00:47:50;;;;;;;499.40;243.00;;;;;;;5.84;100.00;99493.66;5025139;28;20040;-60
2024/01/31 00:50:16;;;;;;;502.58;257.60;;;;;;;5.89;100.00;99492.94;5026021;28;20095;-60
2024/01/31 00:52:44;;;;;;;460.60;244.55;;;;;;;5.83;100.00;99494.47;5026658;28;20055;-61
2024/01/31 00:55:09;;;;;;;454.83;246.20;;;;;;;5.73;100.00;99490.63;5026664;28;20042;-62
2024/01/31 00:57:35;;;;;;;493.80;252.88;;;;;;;5.83;100.00;99484.13;5027040;28;20032;-62
2024/01/31 01:00:04;;;;;;;588.28;257.35;;;;;;;5.54;100.00;99486.44;5024448;28;20033;-61
2024/01/31 01:02:30;;;;;;;476.63;242.13;;;;;;;5.60;100.00;99489.25;5023191;28;20048;-60
2024/01/31 01:04:55;;;;;;;612.72;257.58;;;;;;;5.58;100.00;99490.91;5016600;28;20108;-62
2024/01/31 01:07:20;;;;;;;494.75;252.45;;;;;;;5.71;100.00;99491.38;5020161;28;20048;-59
2024/01/31 01:09:46;;;;;;;558.13;266.45;;;;;;;5.35;100.00;99492.53;5024374;28;20044;-59
2024/01/31 01:12:11;;;;;;;501.90;254.32;;;;;;;5.65;100.00;99478.25;5020737;28;20566;-61
2024/01/31 01:14:36;;;;;;;508.70;264.50;;;;;;;5.72;100.00;99488.00;5022150;28;20486;-60
2024/01/31 01:17:02;;;;;;;632.60;274.27;;;;;;;5.88;100.00;99493.78;5018806;28;20045;-60
2024/01/31 01:19:27;;;;;;;539.25;261.70;;;;;;;5.75;100.00;99490.69;5024025;28;20047;-59
2024/01/31 01:21:53;;;;;;;560.22;264.88;;;;;;;5.92;100.00;99490.50;5018390;28;20057;-59
2024/01/31 01:24:18;;;;;;;503.30;258.23;;;;;;;5.90;100.00;99484.41;5022379;28;20435;-60
2024/01/31 01:26:43;;;;;;;506.00;253.40;;;;;;;5.93;100.00;99481.91;5019987;28;20041;-60
2024/01/31 01:29:09;;;;;;;527.58;254.70;;;;;;;5.90;100.00;99498.16;5016784;28;20033;-62
2024/01/31 01:31:34;;;;;;;532.65;256.65;;;;;;;5.73;100.00;99495.78;5018896;28;20037;-61
2024/01/31 01:34:00;;;;;;;538.53;250.75;;;;;;;5.80;100.00;99499.53;5017450;28;20144;-59
2024/01/31 01:36:25;;;;;;;503.23;250.77;;;;;;;6.04;100.00;99508.19;5019798;28;20305;-60
2024/01/31 01:38:51;;;;;;;521.33;256.95;;;;;;;5.85;100.00;99507.44;5020657;28;20029;-61
2024/01/31 01:41:16;;;;;;;513.92;244.55;;;;;;;5.62;100.00;99502.25;5020366;28;20042;-60
2024/01/31 01:43:42;;;;;;;501.13;248.07;;;;;;;5.56;100.00;99501.97;5022392;28;20044;-61
2024/01/31 01:46:13;;;;;;;583.60;259.85;;;;;;;5.58;100.00;99500.34;5020070;28;20033;-61
2024/01/31 01:48:40;;;;;;;503.73;254.13;;;;;;;5.75;100.00;99505.31;5023161;28;20025;-61
2024/01/31 01:51:06;;;;;;;634.72;262.83;;;;;;;5.66;100.00;99495.50;5023432;28;20128;-60
2024/01/31 01:53:34;;;;;;;551.50;274.33;;;;;;;5.55;100.00;99495.94;5025539;28;20116;-61
2024/01/31 01:56:02;;;;;;;584.97;286.30;;;;;;;5.64;100.00;99489.41;5021056;28;20300;-62
2024/01/31 01:58:28;;;;;;;507.20;276.58;;;;;;;5.71;100.00;99487.13;5025812;28;20021;-61
2024/01/31 02:00:54;;;;;;;593.60;280.08;;;;;;;5.79;100.00;99483.97;5020705;28;20400;-61
2024/01/31 02:03:20;;;;;;;512.83;275.80;;;;;;;5.96;100.00;99487.22;5021865;28;20508;-61
2024/01/31 02:05:46;;;;;;;562.15;283.13;;;;;;;5.84;100.00;99488.50;5023147;28;20037;-61
2024/01/31 02:08:13;;;;;;;597.20;291.05;;;;;;;6.05;100.00;99482.44;5023230;28;20034;-60
2024/01/31 02:10:39;;;;;;;540.28;289.42;;;;;;;5.79;100.00;99479.66;5023560;28;20268;-61
2024/01/31 02:13:04;;;;;;;617.05;292.95;;;;;;;5.84;100.00;99487.59;5021508;28;20203;-63
2024/01/31 02:15:29;;;;;;;590.90;295.60;;;;;;;5.85;100.00;99479.03;5024204;28;20489;-62
2024/01/31 02:17:55;;;;;;;586.60;322.67;;;;;;;5.90;100.00;99479.22;5024793;28;20017;-61
2024/01/31 02:20:22;;;;;;;545.33;272.85;;;;;;;5.66;100.00;99477.41;5025505;28;20029;-60
2024/01/31 02:22:47;;;;;;;570.13;281.40;;;;;;;5.35;100.00;99474.47;5027778;28;20029;-61
2024/01/31 02:25:14;;;;;;;505.80;276.25;;;;;;;5.63;100.00;99470.44;5024390;28;20021;-61
2024/01/31 02:27:39;;;;;;;487.80;251.90;;;;;;;5.72;100.00;99469.94;5025589;28;20535;-61
2024/01/31 02:30:09;;;;;;;633.58;276.23;;;;;;;5.63;100.00;99472.13;5023024;28;20045;-58
2024/01/31 02:32:36;;;;;;;512.60;266.73;;;;;;;5.69;100.00;99474.97;5027061;28;20380;-60
2024/01/31 02:35:01;;;;;;;616.30;289.35;;;;;;;5.63;100.00;99483.34;5025684;28;20202;-61
2024/01/31 02:37:26;;;;;;;549.42;271.77;;;;;;;5.76;100.00;99473.50;5026770;28;20063;-60
2024/01/31 02:39:52;;;;;;;501.25;262.70;;;;;;;5.47;100.00;99474.97;5026631;28;20464;-60
2024/01/31 02:42:18;;;;;;;510.88;271.17;;;;;;;5.70;100.00;99479.31;5025932;28;20029;-60
2024/01/31 02:44:43;;;;;;;565.08;272.92;;;;;;;5.90;100.00;99481.81;5024966;28;20044;-62
2024/01/31 02:47:09;;;;;;;635.85;274.73;;;;;;;5.92;100.00;99490.50;5022248;28;20033;-59
2024/01/31 02:49:34;;;;;;;517.60;260.92;;;;;;;5.72;100.00;99480.25;5024788;28;20030;-60
2024/01/31 02:51:59;;;;;;;557.95;264.50;;;;;;;5.50;100.00;99471.66;5022841;28;20368;-61
2024/01/31 02:54:25;;;;;;;518.97;260.35;;;;;;;5.60;100.00;99478.03;5025463;28;20041;-59
2024/01/31 02:56:50;;;;;;;517.88;272.77;;;;;;;5.53;100.00;99474.34;5026445;28;20753;-60
2024/01/31 02:59:15;;;;;;;562.92;284.83;;;;;;;5.71;100.00;99476.78;5025123;28;20033;-59
2024/01/31 03:01:47;;;;;;;554.63;287.17;;;;;;;5.93;100.00;99466.41;5025855;28;20525;-62
2024/01/31 03:04:12;;;;;;;576.08;280.33;;;;;;;5.95;100.00;99464.78;5024246;28;20499;-62
2024/01/31 03:06:38;;;;;;;543.13;280.17;;;;;;;5.93;100.00;99467.31;5026229;28;20556;-60
2024/01/31 03:09:04;;;;;;;555.08;275.80;;;;;;;5.95;100.00;99464.78;5026605;28;20063;-60
2024/01/31 03:11:30;;;;;;;542.30;277.02;;;;;;;5.98;100.00;99463.19;5025526;28;20237;-61
2024/01/31 03:13:56;;;;;;;534.47;276.02;;;;;;;6.03;100.00;99457.34;5025211;28;20040;-61
2024/01/31 03:16:21;;;;;;;526.55;280.20;;;;;;;6.14;100.00;99461.25;5024845;28;20055;-63
2024/01/31 03:18:47;;;;;;;540.65;279.77;;;;;;;6.05;100.00;99460.91;5023601;28;20060;-62
2024/01/31 03:21:12;;;;;;;560.05;289.60;;;;;;;5.81;100.00;99470.31;5023130;28;20249;-62
2024/01/31 03:23:37;;;;;;;571.67;307.80;;;;;;;5.79;100.00;99465.91;5025491;28;20091;-61
2024/01/31 03:26:03;;;;;;;568.03;301.45;;;;;;;5.40;100.00;99456.59;5022717;28;20752;-63
2024/01/31 03:28:28;;;;;;;552.85;300.48;;;;;;;5.38;100.00;99460.81;5022233;28;20417;-62
2024/01/31 03:30:54;;;;;;;511.58;282.48;;;;;;;5.60;100.00;99458.28;5023934;28;20046;-60
2024/01/31 03:33:19;;;;;;;529.58;277.25;;;;;;;5.64;100.00;99453.25;5023488;28;20190;-60
2024/01/31 03:35:44;;;;;;;550.80;278.40;;;;;;;5.69;100.00;99438.81;5024840;28;20179;-63
2024/01/31 03:38:10;;;;;;;543.40;291.83;;;;;;;5.92;100.00;99444.00;5025695;28;20025;-60
2024/01/31 03:40:36;;;;;;;532.83;280.65;;;;;;;5.95;100.00;99452.78;5025872;28;20079;-61
2024/01/31 03:43:02;;;;;;;587.88;288.27;;;;;;;5.83;100.00;99465.19;5024123;28;20172;-60
2024/01/31 03:45:28;;;;;;;546.13;293.40;;;;;;;5.75;100.00;99446.78;5023582;28;20025;-60
2024/01/31 03:47:53;;;;;;;520.28;286.13;;;;;;;5.75;100.00;99448.53;5024269;28;20018;-60
2024/01/31 03:50:19;;;;;;;548.22;287.10;;;;;;;5.64;100.00;99442.94;5027970;28;20155;-59
2024/01/31 03:52:45;;;;;;;496.60;268.08;;;;;;;5.67;100.00;99437.88;5025757;28;20029;-62
2024/01/31 03:55:11;;;;;;;536.40;280.23;;;;;;;5.87;100.00;99446.44;5024011;28;20029;-60
2024/01/31 03:57:36;;;;;;;582.13;294.35;;;;;;;6.02;100.00;99446.13;5024390;28;20315;-60
2024/01/31 04:00:08;;;;;;;587.58;289.33;;;;;;;5.92;100.00;99444.91;5025659;28;20071;-59
2024/01/31 04:02:34;;;;;;;559.85;285.98;;;;;;;5.67;100.00;99448.19;5027415;28;20048;-60
2024/01/31 04:04:59;;;;;;;564.25;284.45;;;;;;;5.58;100.00;99448.72;5024695;28;20078;-61
2024/01/31 04:07:25;;;;;;;553.47;294.27;;;;;;;5.75;100.00;99449.38;5025491;28;20040;-59
2024/01/31 04:09:50;;;;;;;556.75;284.33;;;;;;;5.98;100.00;99455.44;5022959;28;20040;-60
2024/01/31 04:12:15;;;;;;;566.55;281.92;;;;;;;5.88;100.00;99458.50;5017657;28;20061;-60
2024/01/31 04:14:41;;;;;;;545.30;282.52;;;;;;;5.82;100.00;99458.25;5020689;28;20029;-59
2024/01/31 04:17:06;;;;;;;622.05;301.48;;;;;;;5.61;100.00;99464.34;5021145;28;20034;-60
2024/01/31 04:19:31;;;;;;;534.05;301.88;;;;;;;5.66;100.00;99459.34;5023481;28;20087;-61
2024/01/31 04:21:57;;;;;;;545.13;295.05;;;;;;;5.72;100.00;99468.22;5023857;28;20275;-60
2024/01/31 04:24:22;;;;;;;544.65;291.88;;;;;;;5.79;100.00;99465.91;5024005;28;20739;-59
2024/01/31 04:26:47;;;;;;;543.78;286.48;;;;;;;5.94;100.00;99463.03;5025322;28;20060;-60
2024/01/31 04:29:13;;;;;;;598.70;291.17;;;;;;;5.76;100.00;99463.19;5025220;28;20033;-61
2024/01/31 04:31:38;;;;;;;572.60;299.83;;;;;;;5.67;100.00;99454.25;5025687;28;20155;-60
2024/01/31 04:34:04;;;;;;;533.42;291.67;;;;;;;5.75;100.00;99461.44;5027017;28;20091;-59
2024/01/31 04:36:31;;;;;;;532.05;282.45;;;;;;;5.87;100.00;99451.59;5023528;28;20338;-59
2024/01/31 04:38:56;;;;;;;533.97;283.95;;;;;;;5.96;100.00;99451.94;5023140;28;20433;-61
2024/01/31 04:41:22;;;;;;;533.42;296.67;;;;;;;5.95;100.00;99454.47;5023763;28;20529;-61
2024/01/31 04:43:47;;;;;;;554.15;291.88;;;;;;;5.90;100.00;99450.81;5025455;28;20025;-59
2024/01/31 04:46:13;;;;;;;572.47;302.52;;;;;;;6.02;100.00;99456.47;5023485;28;20053;-61
2024/01/31 04:48:40;;;;;;;575.33;295.02;;;;;;;6.07;100.00;99449.81;5024650;28;20167;-61
2024/01/31 04:51:05;;;;;;;558.47;285.40;;;;;;;5.86;100.00;99448.13;5025666;28;20468;-60
2024/01/31 04:53:31;;;;;;;536.75;288.88;;;;;;;5.71;100.00;99458.72;5023096;28;20016;-61
2024/01/31 04:55:56;;;;;;;531.80;287.38;;;;;;;6.04;100.00;99447.09;5023559;28;20033;-61
2024/01/31 04:58:21;;;;;;;517.90;281.88;;;;;;;6.17;100.00;99463.06;5023837;28;20025;-61
2024/01/31 05:00:47;;;;;;;531.85;277.52;;;;;;;6.22;100.00;99461.53;5025109;28;20520;-60
2024/01/31 05:03:13;;;;;;;620.10;289.35;;;;;;;6.07;100.00;99460.13;5023270;28;20021;-62
2024/01/31 05:05:38;;;;;;;560.60;288.70;;;;;;;5.99;100.00;99466.69;5024180;28;20123;-61
2024/01/31 05:08:05;;;;;;;587.97;287.25;;;;;;;6.03;100.00;99468.59;5023057;28;20020;-62
2024/01/31 05:10:33;;;;;;;534.88;280.95;;;;;;;6.04;100.00;99472.03;5024323;28;20033;-62
2024/01/31 05:12:59;;;;;;;500.27;276.88;;;;;;;6.08;100.00;99474.81;5026935;28;20025;-60
2024/01/31 05:15:24;;;;;;;542.30;283.23;;;;;;;5.85;100.00;99481.63;5022013;28;20451;-61
2024/01/31 05:17:50;;;;;;;530.45;280.98;;;;;;;5.92;100.00;99477.56;5020596;28;20465;-60
2024/01/31 05:20:15;;;;;;;527.25;272.83;;;;;;;6.01;100.00;99483.09;5019217;28;20032;-60
2024/01/31 05:22:40;;;;;;;551.60;275.05;;;;;;;6.12;100.00;99480.97;5023260;28;20026;-59
2024/01/31 05:25:07;;;;;;;575.35;276.85;;;;;;;6.14;100.00;99483.63;5022382;28;20067;-59
2024/01/31 05:27:33;;;;;;;534.97;277.35;;;;;;;6.15;100.00;99483.69;5002802;28;20063;-60
2024/01/31 05:29:58;;;;;;;534.08;274.85;;;;;;;6.09;100.00;99488.63;5006763;28;20448;-60
2024/01/31 05:32:24;;;;;;;542.03;279.67;;;;;;;6.12;100.00;99499.03;5000733;28;20065;-61
2024/01/31 05:34:49;;;;;;;552.15;287.60;;;;;;;6.03;100.00;99491.84;5000441;28;20743;-62
2024/01/31 05:37:14;;;;;;;601.95;288.58;;;;;;;5.92;100.00;99493.06;5012941;28;20068;-62
2024/01/31 05:39:40;;;;;;;525.75;281.90;;;;;;;5.94;100.00;99496.63;5018400;28;20037;-60
2024/01/31 05:42:05;;;;;;;532.30;284.35;;;;;;;5.75;100.00;99497.56;5020776;28;20584;-60
2024/01/31 05:44:31;;;;;;;562.58;287.65;;;;;;;5.90;100.00;99502.47;5024391;28;20052;-62
2024/01/31 05:46:56;;;;;;;546.03;297.48;;;;;;;5.86;100.00;99507.50;5025105;28;20033;-60
2024/01/31 05:49:21;;;;;;;546.13;301.08;;;;;;;5.88;100.00;99504.09;5024302;28;20406;-62
2024/01/31 05:51:49;;;;;;;559.35;307.08;;;;;;;5.95;100.00;99516.44;5026319;28;20091;-61
2024/01/31 05:54:15;;;;;;;586.95;309.58;;;;;;;5.89;100.00;99511.91;5021770;28;20493;-60
2024/01/31 05:56:41;;;;;;;568.08;323.52;;;;;;;5.77;100.00;99517.47;5019900;28;20096;-60
2024/01/31 05:59:08;;;;;;;677.33;331.20;;;;;;;6.08;100.00;99517.84;5021037;28;20034;-60
2024/01/31 06:01:33;;;;;;;568.55;331.67;;;;;;;6.04;100.00;99513.38;5021504;28;20058;-61
2024/01/31 06:03:59;;;;;;;570.67;321.25;;;;;;;6.11;100.00;99517.97;5021445;28;20408;-62
2024/01/31 06:06:24;;;;;;;583.75;320.92;;;;;;;6.12;100.00;99520.63;5017228;28;20045;-61
2024/01/31 06:08:50;;;;;;;571.22;308.73;;;;;;;6.25;100.00;99518.50;5020908;28;20124;-61
2024/01/31 06:11:15;;;;;;;560.58;317.17;;;;;;;6.18;100.00;99525.16;5023793;28;20065;-61
2024/01/31 06:13:40;;;;;;;571.08;296.90;;;;;;;6.10;100.00;99521.38;5021681;28;20055;-63
2024/01/31 06:16:06;;;;;;;604.15;302.83;;;;;;;6.16;100.00;99518.16;5022141;28;20041;-61
2024/01/31 06:18:34;;;;;;;565.17;313.10;;;;;;;6.31;100.00;99521.31;5027492;28;20299;-62
2024/01/31 06:21:00;;;;;;;552.00;319.88;;;;;;;6.32;100.00;99520.53;5023290;28;20557;-62
2024/01/31 06:23:26;;;;;;;578.00;335.88;;;;;;;6.27;100.00;99528.91;5021081;28;20478;-59
2024/01/31 06:25:51;;;;;;;590.47;347.80;;;;;;;6.23;100.00;99525.31;5022747;28;20505;-60
2024/01/31 06:28:16;;;;;;;635.55;355.00;;;;;;;6.35;100.00;99528.38;5021138;28;20037;-61
2024/01/31 06:30:44;;;;;;;602.63;347.58;;;;;;;6.22;100.00;99528.72;5019773;28;20469;-60
2024/01/31 06:33:10;;;;;;;643.88;364.85;;;;;;;6.42;100.00;99531.22;5018164;28;20022;-60
2024/01/31 06:35:37;;;;;;;595.38;357.42;;;;;;;6.19;100.00;99531.16;5021201;28;20033;-60
2024/01/31 06:38:03;;;;;;;575.85;336.02;;;;;;;6.23;100.00;99540.81;5024852;28;20099;-60
2024/01/31 06:40:30;;;;;;;581.92;350.45;;;;;;;6.24;100.00;99540.00;5024491;28;20124;-60
2024/01/31 06:42:56;;;;;;;594.33;356.60;;;;;;;6.11;100.00;99544.69;5024747;28;20025;-60
2024/01/31 06:45:24;;;;;;;593.35;345.42;;;;;;;6.13;100.00;99542.16;5023343;28;20177;-60
2024/01/31 06:47:50;;;;;;;557.53;316.13;;;;;;;6.04;100.00;99539.19;5024585;28;20082;-59
2024/01/31 06:50:16;;;;;;;670.97;330.13;;;;;;;6.16;100.00;99546.56;5023029;28;20053;-60
2024/01/31 06:52:41;;;;;;;557.67;283.83;;;;;;;6.20;100.00;99551.03;5024186;28;20303;-59
2024/01/31 06:55:07;;;;;;;553.78;276.30;;;;;;;6.20;100.00;99551.03;5023207;28;20104;-61
2024/01/31 06:57:34;;;;;;;596.08;297.08;;;;;;;6.15;100.00;99545.69;5025922;28;20059;-60
2024/01/31 06:59:59;;;;;;;541.83;289.55;;;;;;;6.23;100.00;99553.72;5023792;28;20572;-62
2024/01/31 07:02:25;;;;;;;523.33;296.48;;;;;;;6.30;100.00;99550.56;5022535;28;20128;-62
2024/01/31 07:04:51;;;;;;;590.13;314.40;;;;;;;6.34;100.00;99557.63;5022081;28;20532;-60
2024/01/31 07:07:16;;;;;;;584.30;305.48;;;;;;;6.36;100.00;99556.00;5023321;28;20144;-62
2024/01/31 07:09:42;;;;;;;550.22;289.48;;;;;;;6.43;100.00;99557.13;5022176;28;20628;-61
2024/01/31 07:12:07;;;;;;;619.28;281.92;;;;;;;6.47;100.00;99555.53;5022506;28;20182;-61
2024/01/31 07:14:32;;;;;;;525.33;280.65;;;;;;;6.49;100.00;99551.28;5025173;28;20282;-61
2024/01/31 07:16:58;;;;;;;491.10;279.48;;;;;;;6.56;100.00;99558.44;5021617;28;20432;-59
2024/01/31 07:19:23;;;;;;;625.33;293.83;;;;;;;6.62;100.00;99553.53;5024836;28;20033;-59
2024/01/31 07:21:48;;;;;;;554.70;297.65;;;;;;;6.69;100.00;99554.63;5026074;28;20034;-59
2024/01/31 07:24:14;;;;;;;619.70;316.75;;;;;;;6.82;100.00;99552.47;5021941;28;20482;-61
2024/01/31 07:26:39;;;;;;;601.38;310.23;;;;;;;6.84;100.00;99553.44;5022006;28;20390;-60
2024/01/31 07:29:08;;;;;;;600.22;310.35;;;;;;;6.88;100.00;99553.63;5024572;28;20103;-63
2024/01/31 07:31:33;;;;;;;574.13;304.73;;;;;;;6.93;100.00;99546.00;5022715;28;20025;-61
2024/01/31 07:33:58;;;;;;;591.85;314.50;;;;;;;6.90;100.00;99533.84;5023226;28;20040;-60
2024/01/31 07:36:24;;;;;;;635.05;307.80;;;;;;;6.90;100.00;99545.88;5020335;28;20049;-61
2024/01/31 07:38:49;;;;;;;544.63;307.90;;;;;;;6.95;100.00;99544.38;5023406;28;20056;-61
2024/01/31 07:41:14;;;;;;;637.58;324.25;;;;;;;6.97;100.00;99547.88;5024085;28;20052;-63
2024/01/31 07:43:41;;;;;;;572.78;290.38;;;;;;;7.03;100.00;99552.41;5024042;28;20178;-61
2024/01/31 07:46:06;;;;;;;566.20;304.75;;;;;;;7.16;100.00;99554.59;5019298;28;20045;-61
2024/01/31 07:48:32;;;;;;;588.83;308.83;;;;;;;7.20;100.00;99553.00;5025289;28;20028;-61
2024/01/31 07:51:07;;;;;;;548.00;306.88;;;;;;;7.21;100.00;99548.72;5022879;28;20140;-61
2024/01/31 07:53:32;;;;;;;582.88;318.92;;;;;;;7.21;100.00;99543.53;5024799;28;20036;-61
2024/01/31 07:55:58;;;;;;;585.65;326.40;;;;;;;7.27;100.00;99543.75;5022674;28;20263;-62
2024/01/31 07:58:23;;;;;;;604.95;327.08;;;;;;;7.16;100.00;99538.19;5023318;28;20060;-63
2024/01/31 08:00:48;;;;;;;564.22;304.65;;;;;;;7.24;100.00;99546.25;5027109;28;20594;-64
2024/01/31 08:03:14;;;;;;;583.60;314.90;;;;;;;7.32;100.00;99556.84;5024565;28;20032;-61
2024/01/31 08:05:39;;;;;;;550.13;296.13;;;;;;;7.38;100.00;99565.72;5026233;28;20128;-62
2024/01/31 08:08:05;;;;;;;572.65;309.50;;;;;;;7.36;100.00;99566.50;5023674;28;20021;-63
2024/01/31 08:10:30;;;;;;;617.50;317.70;;;;;;;7.33;100.00;99564.69;5022193;28;20111;-61
2024/01/31 08:12:56;;;;;;;592.92;349.05;;;;;;;7.37;100.00;99566.56;5026646;28;20040;-61
2024/01/31 08:15:21;;;;;;;598.35;345.13;;;;;;;7.49;100.00;99575.56;5022506;28;20404;-61
2024/01/31 08:17:47;;;;;;;635.65;359.38;;;;;;;7.29;100.00;99565.41;5021973;28;20372;-62
2024/01/31 08:20:13;;;;;;;696.97;375.83;;;;;;;7.27;100.00;99572.22;5019638;28;20021;-60
2024/01/31 08:22:38;;;;;;;634.65;374.67;;;;;;;7.32;100.00;99564.63;5024036;28;20135;-62
2024/01/31 08:25:04;;;;;;;665.03;402.45;;;;;;;7.32;100.00;99567.22;5023429;28;20116;-61
2024/01/31 08:27:30;;;;;;;601.90;383.05;;;;;;;7.36;100.00;99564.78;5024389;28;20040;-60
2024/01/31 08:29:55;;;;;;;609.83;380.67;;;;;;;7.45;100.00;99563.34;5025704;28;20420;-61
2024/01/31 08:32:21;;;;;;;691.58;379.30;;;;;;;7.51;100.00;99555.78;5022631;28;20048;-63
2024/01/31 08:34:46;;;;;;;626.47;363.00;;;;;;;7.60;100.00;99561.28;5022036;28;20022;-62
2024/01/31 08:37:12;;;;;;;635.15;376.45;;;;;;;7.64;100.00;99555.38;5020824;28;20029;-64
2024/01/31 08:39:37;;;;;;;668.63;389.67;;;;;;;7.59;100.00;99575.06;5022665;28;20096;-62
2024/01/31 08:42:03;;;;;;;591.97;364.25;;;;;;;7.73;100.00;99569.47;5022269;28;20409;-61
2024/01/31 08:44:29;;;;;;;534.83;306.95;;;;;;;7.58;100.00;99585.38;5022951;28;20029;-60
2024/01/31 08:46:54;;;;;;;580.22;302.80;;;;;;;7.53;100.00;99587.78;5023372;28;20036;-63
2024/01/31 08:49:21;;;;;;;658.58;332.67;;;;;;;7.47;100.00;99582.41;5021907;28;20228;-63
2024/01/31 08:51:47;;;;;;;551.22;324.40;;;;;;;7.53;100.00;99583.50;5022772;28;20112;-63
2024/01/31 08:54:12;;;;;;;590.92;284.35;;;;;;;7.50;100.00;99582.53;5020236;28;20056;-63
2024/01/31 08:56:37;;;;;;;542.05;271.40;;;;;;;7.79;100.00;99577.44;5022303;28;20069;-60
2024/01/31 08:59:03;;;;;;;568.97;279.05;;;;;;;7.72;100.00;99583.25;5023086;28;20009;-61
2024/01/31 09:01:28;;;;;;;623.42;264.85;;;;;;;7.65;100.00;99582.16;5017679;28;20409;-60
2024/01/31 09:03:55;;;;;;;452.05;246.35;;;;;;;7.89;100.00;99589.88;5023943;28;20366;-61
2024/01/31 09:06:21;;;;;;;528.33;255.23;;;;;;;8.00;100.00;99585.06;5027376;28;20129;-62
2024/01/31 09:08:48;;;;;;;533.15;262.30;;;;;;;7.89;100.00;99584.69;5025140;28;20120;-62
2024/01/31 09:11:14;;;;;;;479.75;245.27;;;;;;;8.02;100.00;99587.69;5025980;28;20034;-63
2024/01/31 09:13:40;;;;;;;484.50;249.85;;;;;;;8.32;100.00;99582.59;5027101;28;20033;-61
2024/01/31 09:16:06;;;;;;;512.95;256.35;;;;;;;8.45;100.00;99573.50;5024107;28;20042;-61
2024/01/31 09:18:31;;;;;;;502.08;271.20;;;;;;;8.61;100.00;99578.31;5024612;28;20071;-63
2024/01/31 09:20:57;;;;;;;512.55;270.40;;;;;;;8.63;100.00;99587.91;5023632;28;20467;-64
2024/01/31 09:23:22;;;;;;;575.38;257.42;;;;;;;8.80;100.00;99585.78;5028462;28;20505;-62
2024/01/31 09:25:49;;;;;;;441.20;240.57;;;;;;;8.78;100.00;99590.06;5029390;28;20475;-63
2024/01/31 09:28:14;;;;;;;504.08;244.63;;;;;;;8.88;100.00;99593.81;5023866;28;20033;-61
2024/01/31 09:30:40;;;;;;;505.10;242.77;;;;;;;8.84;100.00;99586.78;5026359;28;20036;-60
2024/01/31 09:33:06;;;;;;;480.58;246.88;;;;;;;8.69;100.00;99588.06;5025350;28;20023;-62
2024/01/31 09:35:31;;;;;;;475.27;245.68;;;;;;;8.78;100.00;99590.06;5025175;28;20460;-61
2024/01/31 09:37:56;;;;;;;519.63;256.83;;;;;;;8.70;100.00;99573.41;5028235;28;20005;-63
2024/01/31 09:40:23;;;;;;;589.55;260.48;;;;;;;8.77;100.00;99580.53;5024024;28;20052;-64
2024/01/31 09:42:51;;;;;;;493.35;249.75;;;;;;;9.31;100.00;99568.19;5027572;28;20060;-63
2024/01/31 09:45:17;;;;;;;559.05;243.10;;;;;;;9.69;100.00;99569.16;5023718;28;20026;-60
2024/01/31 09:47:45;;;;;;;481.92;241.38;;;;;;;9.94;100.00;99565.44;5024235;28;20022;-62
2024/01/31 09:50:11;;;;;;;531.58;246.23;;;;;;;9.43;100.00;99567.63;5021561;28;20468;-63
2024/01/31 09:52:39;;;;;;;531.33;254.02;;;;;;;9.41;100.00;99564.13;5024542;28;20032;-60
2024/01/31 09:55:09;;;;;;;485.35;247.27;;;;;;;9.44;100.00;99569.41;5027276;28;20021;-62
2024/01/31 09:57:34;;;;;;;510.27;228.60;;;;;;;9.65;100.00;99563.00;5026004;28;20025;-60
2024/01/31 10:00:00;;;;;;;472.25;228.18;;;;;;;10.06;100.00;99561.41;5024466;28;20173;-60
2024/01/31 10:02:27;;;;;;;570.60;257.30;;;;;;;8.80;100.00;99569.38;5026326;28;20045;-60
2024/01/31 10:04:52;;;;;;;531.58;259.02;;;;;;;8.45;100.00;99568.31;5025774;28;20103;-59
2024/01/31 10:07:24;;;;;;;568.65;276.83;;;;;;;8.02;100.00;99585.09;5022830;28;20445;-61
2024/01/31 10:09:53;;;;;;;;;;;;;;;7.91;100.00;99585.63;5028894;28;20025;-63
2024/01/31 10:12:20;;;;;;;544.17;267.23;;;;;;;7.85;100.00;99593.19;5026335;28;19917;-59
2024/01/31 10:14:52;;;;;;;458.48;262.48;;;;;;;7.64;100.00;99594.22;5028254;28;20396;-59
2024/01/31 10:17:22;;;;;;;505.35;255.45;;;;;;;7.68;100.00;99592.59;5028909;28;20601;-61
2024/01/31 10:19:51;;;;;;;466.92;256.42;;;;;;;7.80;100.00;99576.63;5030712;28;20543;-62
2024/01/31 10:22:17;;;;;;;503.63;265.70;;;;;;;8.15;100.00;99576.00;5028217;28;20067;-60
2024/01/31 10:24:48;;;;;;;473.50;231.38;;;;;;;8.26;100.00;99577.22;5028982;28;20305;-62
2024/01/31 10:27:14;;;;;;;452.52;241.70;;;;;;;8.46;100.00;99580.44;5029466;28;20075;-59
2024/01/31 10:29:40;;;;;;;469.50;230.43;;;;;;;8.49;100.00;99574.47;5029193;28;20041;-60
2024/01/31 10:32:06;;;;;;;387.45;187.88;;;;;;;8.93;100.00;99571.47;5029822;28;20112;-63
2024/01/31 10:34:33;;;;;;;498.33;203.95;;;;;;;9.51;100.00;99570.44;5028618;28;20036;-62
2024/01/31 10:37:00;;;;;;;415.77;193.80;;;;;;;9.61;100.00;99564.66;5026967;28;20069;-61
2024/01/31 10:39:26;;;;;;;485.17;212.48;;;;;;;9.73;100.00;99556.28;5026829;28;20026;-60
2024/01/31 10:41:52;;;;;;;427.48;206.48;;;;;;;10.26;100.00;99551.47;5029064;28;20496;-60
2024/01/31 10:44:18;;;;;;;451.27;196.25;;;;;;;10.25;100.00;99549.72;5027230;28;20060;-61
2024/01/31 10:46:48;;;;;;;473.65;214.50;;;;;;;10.19;100.00;99560.84;5031229;28;20498;-60
2024/01/31 10:49:16;;;;;;;494.63;215.32;;;;;;;10.57;100.00;99554.78;5029683;28;20028;-63
2024/01/31 10:51:55;;;;;;;550.63;226.43;;;;;;;9.95;100.00;99562.00;5030889;28;20599;-61
2024/01/31 10:54:25;;;;;;;524.55;216.43;;;;;;;10.71;100.00;99562.00;5027567;28;20036;-61
2024/01/31 10:56:51;;;;;;;522.63;220.98;;;;;;;10.66;100.00;99568.00;5027778;28;20033;-64